Time;durP1;ratioP1;P1;durP2;ratioP2;P2;SDS_P1;SDS_P2;PMS_P1;PMS_P2;Temp;Humidity;BMP_temperature;BMP_pressure;BME280_temperature;BME280_humidity;BME280_pressure;Samples;Min_cycle;Max_cycle;Signal;HPM_P1;HPM_P2
2023/02/25 00:00:29;;;;;;;13.25;2.92;;;5.50;99.90;;;;;;4183326;28;20037;-80
2023/02/25 00:02:29;;;;;;;23.52;3.97;;;5.50;99.90;;;;;;4182861;28;20499;-79
2023/02/25 00:04:31;;;;;;;18.52;3.38;;;5.40;99.90;;;;;;4184785;28;20048;-80
2023/02/25 00:06:31;;;;;;;14.15;3.13;;;5.40;99.90;;;;;;4181301;28;20115;-81
2023/02/25 00:08:33;;;;;;;19.45;3.72;;;5.40;99.90;;;;;;4185734;28;20033;-81
2023/02/25 00:10:34;;;;;;;23.90;4.40;;;5.50;99.90;;;;;;4181624;28;20064;-81
2023/02/25 00:12:34;;;;;;;13.65;2.70;;;5.50;99.90;;;;;;4184473;28;20279;-81
2023/02/25 00:14:35;;;;;;;17.65;3.38;;;5.50;99.90;;;;;;4189193;28;20063;-82
2023/02/25 00:16:35;;;;;;;19.42;3.05;;;5.40;99.90;;;;;;4178759;28;20045;-81
2023/02/25 00:18:39;;;;;;;14.07;3.33;;;5.40;99.90;;;;;;4191927;28;20032;-81
2023/02/25 00:20:40;;;;;;;19.55;3.15;;;5.50;99.90;;;;;;4184301;28;20047;-82
2023/02/25 00:22:40;;;;;;;14.90;3.15;;;5.40;99.90;;;;;;4185654;28;20484;-81
2023/02/25 00:24:41;;;;;;;19.90;4.22;;;5.40;99.90;;;;;;4177562;28;20498;-81
2023/02/25 00:26:43;;;;;;;14.00;2.85;;;5.40;99.90;;;;;;4181091;28;20045;-81
2023/02/25 00:28:43;;;;;;;14.88;2.60;;;5.40;99.90;;;;;;4181936;28;20198;-81
2023/02/25 00:30:44;;;;;;;15.18;3.13;;;5.30;99.90;;;;;;4185270;28;20483;-81
2023/02/25 00:32:45;;;;;;;11.07;2.72;;;5.30;99.90;;;;;;4181601;28;20048;-81
2023/02/25 00:34:46;;;;;;;17.33;3.40;;;5.30;99.90;;;;;;4179416;28;20124;-81
2023/02/25 00:36:47;;;;;;;15.50;3.45;;;5.30;99.90;;;;;;4176925;28;20416;-81
2023/02/25 00:38:48;;;;;;;20.17;3.20;;;5.30;99.90;;;;;;4178804;28;20445;-81
2023/02/25 00:40:49;;;;;;;13.98;2.83;;;5.30;99.90;;;;;;4177471;28;20045;-81
2023/02/25 00:42:50;;;;;;;13.57;2.30;;;5.20;99.90;;;;;;4176487;28;20036;-82
2023/02/25 00:44:51;;;;;;;15.60;3.05;;;5.20;99.90;;;;;;4173984;28;20033;-81
2023/02/25 00:46:51;;;;;;;11.20;3.13;;;5.20;99.90;;;;;;4174712;28;20036;-81
2023/02/25 00:48:52;;;;;;;23.90;3.20;;;5.20;99.90;;;;;;4177231;28;20044;-81
2023/02/25 00:50:53;;;;;;;16.90;2.80;;;5.20;99.90;;;;;;4178360;28;20040;-81
2023/02/25 00:52:53;;;;;;;15.23;2.53;;;5.20;99.90;;;;;;4176156;28;20048;-81
2023/02/25 00:54:54;;;;;;;17.77;2.90;;;5.20;99.90;;;;;;4173145;28;20040;-81
2023/02/25 00:56:54;;;;;;;14.95;3.17;;;5.10;99.90;;;;;;4177061;28;20037;-81
2023/02/25 00:58:55;;;;;;;14.70;2.97;;;5.20;99.90;;;;;;4183264;28;20064;-82
2023/02/25 01:00:56;;;;;;;17.98;2.70;;;5.20;99.90;;;;;;4185870;28;20036;-80
2023/02/25 01:02:57;;;;;;;15.85;2.92;;;5.20;99.90;;;;;;4187816;28;20041;-80
2023/02/25 01:04:57;;;;;;;18.67;3.35;;;5.20;99.90;;;;;;4184184;28;20032;-81
2023/02/25 01:06:58;;;;;;;10.45;2.42;;;5.30;99.90;;;;;;4183319;28;20559;-80
2023/02/25 01:08:59;;;;;;;14.35;2.92;;;5.30;99.90;;;;;;4183263;28;20060;-81
2023/02/25 01:11:08;;;;;;;15.07;2.63;;;5.30;99.90;;;;;;4177933;28;20037;-81
2023/02/25 01:13:09;;;;;;;22.15;3.20;;;5.30;99.90;;;;;;4189104;28;20044;-81
2023/02/25 01:15:10;;;;;;;11.65;2.80;;;5.30;99.90;;;;;;4181929;28;20139;-81
2023/02/25 01:17:10;;;;;;;17.15;2.92;;;5.30;99.90;;;;;;4184689;28;20463;-81
2023/02/25 01:19:14;;;;;;;17.25;3.13;;;5.30;99.90;;;;;;4182451;28;20086;-81
2023/02/25 01:21:24;;;;;;;16.15;3.45;;;5.30;99.90;;;;;;4183135;28;20061;-81
2023/02/25 01:23:25;;;;;;;15.23;2.63;;;5.30;99.90;;;;;;4175885;28;20641;-81
2023/02/25 01:25:25;;;;;;;18.23;3.42;;;5.30;99.90;;;;;;4177519;28;20040;-77
2023/02/25 01:27:26;;;;;;;10.35;2.67;;;5.30;99.90;;;;;;4177263;28;20065;-80
2023/02/25 01:29:30;;;;;;;20.20;3.17;;;5.40;99.90;;;;;;4178389;28;20040;-80
2023/02/25 01:31:31;;;;;;;15.25;3.00;;;5.30;99.90;;;;;;4182377;28;20037;-79
2023/02/25 01:33:31;;;;;;;17.40;3.20;;;5.30;99.90;;;;;;4179398;28;20108;-80
2023/02/25 01:35:34;;;;;;;10.52;2.30;;;5.30;99.90;;;;;;4183619;28;20029;-80
2023/02/25 01:37:35;;;;;;;17.98;3.28;;;5.30;99.90;;;;;;4181246;28;20047;-81
2023/02/25 01:39:36;;;;;;;17.88;3.50;;;5.30;99.90;;;;;;4179753;28;20037;-81
2023/02/25 01:41:37;;;;;;;15.32;3.13;;;5.20;99.90;;;;;;4177349;28;20044;-80
2023/02/25 01:43:39;;;;;;;21.27;3.15;;;5.10;99.90;;;;;;4180639;28;20052;-81
2023/02/25 01:45:43;;;;;;;21.33;4.13;;;5.20;99.90;;;;;;4178343;28;20085;-81
2023/02/25 01:47:47;;;;;;;21.40;3.78;;;5.10;99.90;;;;;;4181808;28;20033;-81
2023/02/25 01:49:48;;;;;;;8.55;2.10;;;5.00;99.90;;;;;;4183699;28;20025;-80
2023/02/25 01:51:52;;;;;;;22.27;3.00;;;5.00;99.90;;;;;;4184328;28;20041;-81
2023/02/25 01:53:55;;;;;;;17.30;3.38;;;5.00;99.90;;;;;;4182871;28;20463;-81
2023/02/25 01:55:58;;;;;;;16.02;3.50;;;5.00;99.90;;;;;;4173762;28;20442;-78
2023/02/25 01:57:59;;;;;;;19.85;2.70;;;5.00;99.90;;;;;;4184836;28;20044;-81
2023/02/25 02:00:01;;;;;;;11.67;2.57;;;4.90;99.90;;;;;;4184543;28;20040;-80
2023/02/25 02:02:02;;;;;;;17.85;4.10;;;4.90;99.90;;;;;;4180903;28;20278;-80
2023/02/25 02:04:04;;;;;;;21.35;2.92;;;4.90;99.90;;;;;;4183181;28;20029;-80
2023/02/25 02:06:16;;;;;;;20.05;3.80;;;4.90;99.90;;;;;;4183113;28;20033;-80
2023/02/25 02:08:17;;;;;;;17.67;3.33;;;4.90;99.90;;;;;;4184513;28;20387;-80
2023/02/25 02:10:18;;;;;;;15.10;3.38;;;4.90;99.90;;;;;;4177949;28;20033;-81
2023/02/25 02:12:19;;;;;;;19.02;3.35;;;4.90;99.90;;;;;;4183605;28;20464;-81
2023/02/25 02:14:39;;;;;;;13.13;3.17;;;4.90;99.90;;;;;;4180506;28;20037;-81
2023/02/25 02:17:04;;;;;;;17.33;3.45;;;4.90;99.90;;;;;;4176382;28;20507;-80
2023/02/25 02:19:38;;;;;;;22.55;3.50;;;4.90;99.90;;;;;;4178470;28;20068;-81
2023/02/25 02:21:56;;;;;;;20.95;3.67;;;5.00;99.90;;;;;;4156473;28;20040;-80
2023/02/25 02:24:20;;;;;;;15.80;3.30;;;4.90;99.90;;;;;;4180055;28;20452;-81
2023/02/25 02:26:39;;;;;;;;;;;4.90;99.90;;;;;;4177141;28;20124;-81
2023/02/25 02:28:58;;;;;;;18.38;4.00;;;4.90;99.90;;;;;;4184457;28;19916;-81
2023/02/25 02:31:25;;;;;;;18.33;2.97;;;4.90;99.90;;;;;;4172525;28;20123;-80
2023/02/25 02:33:53;;;;;;;17.70;3.28;;;5.00;99.90;;;;;;4175655;28;20043;-75
2023/02/25 02:36:02;;;;;;;16.40;3.40;;;4.90;99.90;;;;;;4178616;28;20044;-81
2023/02/25 02:38:11;;;;;;;21.52;3.90;;;4.90;99.90;;;;;;4182800;28;20051;-80
2023/02/25 02:40:37;;;;;;;17.10;3.17;;;4.90;99.90;;;;;;4177310;28;20053;-81
2023/02/25 02:42:53;;;;;;;18.73;3.25;;;4.90;99.90;;;;;;4179380;28;20613;-81
2023/02/25 02:45:11;;;;;;;15.88;3.03;;;4.80;99.90;;;;;;4187373;28;20549;-81
2023/02/25 02:47:21;;;;;;;21.92;3.65;;;4.90;99.90;;;;;;4181236;28;20037;-81
2023/02/25 02:49:42;;;;;;;13.38;3.15;;;4.90;99.90;;;;;;4174635;28;20045;-81
2023/02/25 02:51:49;;;;;;;19.52;2.65;;;4.90;99.90;;;;;;4176795;28;20045;-81
2023/02/25 02:53:54;;;;;;;13.02;2.70;;;5.00;99.90;;;;;;4176373;28;20040;-81
2023/02/25 02:55:59;;;;;;;15.75;3.03;;;5.00;99.90;;;;;;4175723;28;20025;-81
2023/02/25 02:58:06;;;;;;;11.40;2.97;;;5.00;99.90;;;;;;4179982;28;20033;-80
2023/02/25 03:00:16;;;;;;;17.75;3.75;;;5.00;99.90;;;;;;4184793;28;20043;-80
2023/02/25 03:02:22;;;;;;;13.40;2.90;;;5.00;99.90;;;;;;4186814;28;20048;-81
2023/02/25 03:04:28;;;;;;;15.77;3.13;;;5.10;99.90;;;;;;4179662;28;20548;-81
2023/02/25 03:06:38;;;;;;;18.02;3.20;;;5.10;99.90;;;;;;4178336;28;20037;-81
2023/02/25 03:08:46;;;;;;;27.38;3.90;;;5.00;99.90;;;;;;4182506;28;20403;-80
2023/02/25 03:10:47;;;;;;;15.43;2.72;;;5.00;99.90;;;;;;4176625;28;20049;-81
2023/02/25 03:12:48;;;;;;;16.40;3.10;;;5.10;99.90;;;;;;4182688;28;20045;-81
2023/02/25 03:14:48;;;;;;;10.02;2.65;;;5.00;99.90;;;;;;4182365;28;20047;-81
2023/02/25 03:17:10;;;;;;;14.70;3.17;;;5.00;99.90;;;;;;4178926;28;20137;-81
2023/02/25 03:19:16;;;;;;;10.40;3.47;;;5.00;99.90;;;;;;4173529;28;20045;-81
2023/02/25 03:21:26;;;;;;;22.98;3.13;;;5.10;99.90;;;;;;4179957;28;22235;-81
2023/02/25 03:23:32;;;;;;;25.95;3.88;;;5.10;99.90;;;;;;4178160;28;20052;-80
2023/02/25 03:25:46;;;;;;;24.95;3.42;;;5.10;99.90;;;;;;4179275;28;20045;-80
2023/02/25 03:27:52;;;;;;;18.77;3.55;;;5.10;99.90;;;;;;4179056;28;20167;-80
2023/02/25 03:29:59;;;;;;;21.65;3.50;;;5.00;99.90;;;;;;4179825;28;20060;-81
2023/02/25 03:32:07;;;;;;;20.23;3.58;;;5.00;99.90;;;;;;4180737;28;20127;-80
2023/02/25 03:34:32;;;;;;;18.98;3.67;;;5.10;99.90;;;;;;4183793;28;20120;-80
2023/02/25 03:36:38;;;;;;;17.63;2.70;;;5.00;99.90;;;;;;4179794;28;20086;-80
2023/02/25 03:38:43;;;;;;;16.55;2.92;;;5.10;99.90;;;;;;4178907;28;20041;-80
2023/02/25 03:40:48;;;;;;;15.95;3.22;;;5.10;99.90;;;;;;4174488;28;20037;-80
2023/02/25 03:42:55;;;;;;;22.42;3.63;;;5.10;99.90;;;;;;4178009;28;20028;-81
2023/02/25 03:45:00;;;;;;;20.52;3.15;;;5.00;99.90;;;;;;4175978;28;20087;-80
2023/02/25 03:47:03;;;;;;;16.92;2.70;;;5.00;99.90;;;;;;4181726;28;20033;-75
2023/02/25 03:49:06;;;;;;;13.70;2.85;;;5.10;99.90;;;;;;4178206;28;20033;-79
2023/02/25 03:51:07;;;;;;;16.30;2.65;;;5.10;99.90;;;;;;4181088;28;20082;-79
2023/02/25 03:53:09;;;;;;;14.90;2.80;;;5.10;99.90;;;;;;4181525;28;20407;-80
2023/02/25 03:55:11;;;;;;;11.35;2.42;;;5.10;99.90;;;;;;4177657;28;20490;-79
2023/02/25 03:57:12;;;;;;;16.33;3.33;;;5.10;99.90;;;;;;4180417;28;20037;-79
2023/02/25 03:59:13;;;;;;;9.25;2.17;;;5.10;99.90;;;;;;4190055;28;20044;-79
2023/02/25 04:01:29;;;;;;;13.07;2.90;;;5.10;99.90;;;;;;4181933;28;20464;-80
2023/02/25 04:03:29;;;;;;;17.35;2.78;;;5.10;99.90;;;;;;4178665;28;20456;-79
2023/02/25 04:05:30;;;;;;;13.20;2.65;;;5.10;99.90;;;;;;4178079;28;20051;-79
2023/02/25 04:07:31;;;;;;;19.50;3.20;;;5.20;99.90;;;;;;4183542;28;20037;-79
2023/02/25 04:09:31;;;;;;;18.40;2.83;;;5.20;99.90;;;;;;4182799;28;20041;-76
2023/02/25 04:11:32;;;;;;;14.45;3.05;;;5.20;99.90;;;;;;4186303;28;20052;-78
2023/02/25 04:13:32;;;;;;;13.15;2.45;;;5.20;99.90;;;;;;4189370;28;20037;-79
2023/02/25 04:15:33;;;;;;;9.15;2.20;;;5.30;99.90;;;;;;4179390;28;20491;-79
2023/02/25 04:17:36;;;;;;;15.15;2.70;;;5.30;99.90;;;;;;4185889;28;20090;-79
2023/02/25 04:19:36;;;;;;;;;;;5.30;99.90;;;;;;4177501;28;20036;-79
2023/02/25 04:21:38;;;;;;;10.98;2.33;;;5.30;99.90;;;;;;4183875;28;19908;-79
2023/02/25 04:23:38;;;;;;;19.15;2.95;;;5.30;99.90;;;;;;4178721;28;20078;-79
2023/02/25 04:25:39;;;;;;;17.88;3.05;;;5.30;99.90;;;;;;4183925;28;20132;-79
2023/02/25 04:27:40;;;;;;;21.15;3.58;;;5.30;99.90;;;;;;4183665;28;20060;-80
2023/02/25 04:29:44;;;;;;;13.10;2.58;;;5.30;99.90;;;;;;4174547;28;20116;-79
2023/02/25 04:31:44;;;;;;;13.27;2.50;;;5.20;99.90;;;;;;4182349;28;20047;-79
2023/02/25 04:33:48;;;;;;;19.50;3.05;;;5.20;99.90;;;;;;4180419;28;20546;-79
2023/02/25 04:35:49;;;;;;;12.45;3.05;;;5.30;99.90;;;;;;4185661;28;20040;-79
2023/02/25 04:37:50;;;;;;;21.58;3.38;;;5.20;99.90;;;;;;4186179;28;20063;-79
2023/02/25 04:39:51;;;;;;;14.13;2.50;;;5.30;99.90;;;;;;4183396;28;20430;-79
2023/02/25 04:41:51;;;;;;;20.55;3.05;;;5.30;99.90;;;;;;4179169;28;20048;-79
2023/02/25 04:43:52;;;;;;;14.10;2.83;;;5.30;99.90;;;;;;4188105;28;20107;-79
2023/02/25 04:45:54;;;;;;;11.68;2.67;;;5.30;99.90;;;;;;4178319;28;20033;-78
2023/02/25 04:47:56;;;;;;;20.33;3.63;;;5.30;99.90;;;;;;4171961;28;20487;-79
2023/02/25 04:49:57;;;;;;;;;;;5.30;99.90;;;;;;4181951;28;20480;-79
2023/02/25 04:51:58;;;;;;;32.13;3.65;;;5.30;99.90;;;;;;4175641;28;19971;-76
2023/02/25 04:53:58;;;;;;;21.58;3.72;;;5.30;99.90;;;;;;4178616;28;20048;-78
2023/02/25 04:56:04;;;;;;;13.85;2.88;;;5.30;99.90;;;;;;4171921;28;20029;-79
2023/02/25 04:58:04;;;;;;;17.35;3.70;;;5.30;99.90;;;;;;4175980;28;20552;-79
2023/02/25 05:00:08;;;;;;;19.15;3.60;;;5.30;99.90;;;;;;4171548;28;20041;-79
2023/02/25 05:02:08;;;;;;;15.38;3.13;;;5.30;99.90;;;;;;4176237;28;20041;-79
2023/02/25 05:04:09;;;;;;;23.83;3.38;;;5.30;99.90;;;;;;4174915;28;20052;-79
2023/02/25 05:06:10;;;;;;;18.52;3.42;;;5.30;99.90;;;;;;4172818;28;20037;-79
2023/02/25 05:08:10;;;;;;;22.20;3.83;;;5.40;99.90;;;;;;4179670;28;20029;-79
2023/02/25 05:10:13;;;;;;;13.60;3.03;;;5.40;99.90;;;;;;4177967;28;20112;-78
2023/02/25 05:12:14;;;;;;;15.57;2.90;;;5.30;99.90;;;;;;4173558;28;20034;-79
2023/02/25 05:14:14;;;;;;;18.92;3.00;;;5.40;99.90;;;;;;4173702;28;20140;-78
2023/02/25 05:16:16;;;;;;;22.35;3.65;;;5.30;99.90;;;;;;4176660;28;20411;-78
2023/02/25 05:18:18;;;;;;;19.50;3.70;;;5.30;99.90;;;;;;4176780;28;20043;-78
2023/02/25 05:20:18;;;;;;;15.20;3.15;;;5.30;99.90;;;;;;4172287;28;20061;-78
2023/02/25 05:22:19;;;;;;;17.73;3.55;;;5.30;99.90;;;;;;4186273;28;20036;-79
2023/02/25 05:24:22;;;;;;;22.75;3.55;;;5.30;99.90;;;;;;4172860;28;20053;-78
2023/02/25 05:26:23;;;;;;;15.90;3.15;;;5.20;99.90;;;;;;4175535;28;20515;-79
2023/02/25 05:28:24;;;;;;;18.55;3.05;;;5.10;99.90;;;;;;4177056;28;20120;-78
2023/02/25 05:30:25;;;;;;;12.55;3.35;;;5.20;99.90;;;;;;4182275;28;20095;-78
2023/02/25 05:32:25;;;;;;;17.90;3.63;;;5.20;99.90;;;;;;4175473;28;20082;-78
2023/02/25 05:34:26;;;;;;;18.98;3.22;;;5.20;99.90;;;;;;4175829;28;20033;-78
2023/02/25 05:36:27;;;;;;;14.63;2.97;;;5.10;99.90;;;;;;4173703;28;20448;-78
2023/02/25 05:38:27;;;;;;;14.73;2.80;;;5.20;99.90;;;;;;4175192;28;20034;-76
2023/02/25 05:40:28;;;;;;;15.55;3.20;;;5.20;99.90;;;;;;4176354;28;20036;-77
2023/02/25 05:42:29;;;;;;;18.50;3.33;;;5.20;99.90;;;;;;4172473;28;20033;-77
2023/02/25 05:44:29;;;;;;;23.95;3.72;;;5.20;99.90;;;;;;4176262;28;20495;-78
2023/02/25 05:46:30;;;;;;;15.38;2.92;;;5.20;99.90;;;;;;4173530;28;20064;-78
2023/02/25 05:48:31;;;;;;;18.52;3.28;;;5.20;99.90;;;;;;4184332;28;20490;-78
2023/02/25 05:50:33;;;;;;;14.65;3.08;;;5.20;99.90;;;;;;4185579;28;20048;-78
2023/02/25 05:52:34;;;;;;;12.93;2.42;;;5.20;99.90;;;;;;4182248;28;20045;-76
2023/02/25 05:54:34;;;;;;;14.23;2.70;;;5.20;99.90;;;;;;4175167;28;20060;-77
2023/02/25 05:56:35;;;;;;;17.25;2.67;;;5.20;99.90;;;;;;4179083;28;20045;-78
2023/02/25 05:58:35;;;;;;;12.60;3.22;;;5.20;99.90;;;;;;4187230;28;20036;-78
2023/02/25 06:00:36;;;;;;;17.10;3.35;;;5.20;99.90;;;;;;4178054;28;20044;-78
2023/02/25 06:02:37;;;;;;;14.40;2.65;;;5.20;99.90;;;;;;4181689;28;20134;-78
2023/02/25 06:04:37;;;;;;;19.65;3.50;;;5.20;99.90;;;;;;4187391;28;20033;-78
2023/02/25 06:06:38;;;;;;;13.95;2.67;;;5.20;99.90;;;;;;4180559;28;20036;-78
2023/02/25 06:08:41;;;;;;;16.83;3.60;;;5.20;99.90;;;;;;4178681;28;20040;-78
2023/02/25 06:10:42;;;;;;;15.50;3.10;;;5.20;99.90;;;;;;4171020;28;20036;-77
2023/02/25 06:12:42;;;;;;;17.05;3.03;;;5.20;99.90;;;;;;4177435;28;20171;-77
2023/02/25 06:14:43;;;;;;;14.90;3.28;;;5.20;99.90;;;;;;4173897;28;20048;-77
2023/02/25 06:16:44;;;;;;;19.13;3.05;;;5.20;99.90;;;;;;4172527;28;20083;-77
2023/02/25 06:18:45;;;;;;;17.92;2.75;;;5.30;99.90;;;;;;4172215;28;20033;-77
2023/02/25 06:20:46;;;;;;;19.50;3.63;;;5.30;99.90;;;;;;4174405;28;20037;-77
2023/02/25 06:22:47;;;;;;;22.67;2.95;;;5.30;99.90;;;;;;4172122;28;20119;-77
2023/02/25 06:24:47;;;;;;;13.90;3.15;;;5.30;99.90;;;;;;4173241;28;20094;-77
2023/02/25 06:26:48;;;;;;;18.52;3.10;;;5.30;99.90;;;;;;4171239;28;20123;-77
2023/02/25 06:28:48;;;;;;;16.33;2.72;;;5.30;99.90;;;;;;4173370;28;20512;-77
2023/02/25 06:30:49;;;;;;;17.33;2.85;;;5.30;99.90;;;;;;4172230;28;20691;-77
2023/02/25 06:32:50;;;;;;;15.45;3.40;;;5.30;99.90;;;;;;4170181;28;20052;-76
2023/02/25 06:34:50;;;;;;;12.93;3.15;;;5.20;99.90;;;;;;4170112;28;20491;-77
2023/02/25 06:36:51;;;;;;;17.30;3.40;;;5.20;99.90;;;;;;4171032;28;20041;-79
2023/02/25 06:38:52;;;;;;;18.27;2.88;;;5.30;99.90;;;;;;4171565;28;20036;-77
2023/02/25 06:40:52;;;;;;;13.45;2.42;;;5.20;99.90;;;;;;4168283;28;20065;-77
2023/02/25 06:42:53;;;;;;;14.10;2.60;;;5.20;99.90;;;;;;4170709;28;20048;-76
2023/02/25 06:44:53;;;;;;;21.23;3.63;;;5.20;99.90;;;;;;4173393;28;20472;-76
2023/02/25 06:46:54;;;;;;;12.80;2.45;;;5.20;99.90;;;;;;4170262;28;20135;-77
2023/02/25 06:48:56;;;;;;;9.73;2.30;;;5.20;99.90;;;;;;4174771;28;20037;-76
2023/02/25 06:50:56;;;;;;;20.08;3.80;;;5.20;99.90;;;;;;4172970;28;20118;-76
2023/02/25 06:52:58;;;;;;;13.05;2.80;;;5.20;99.90;;;;;;4174229;28;20041;-75
2023/02/25 06:54:58;;;;;;;12.15;2.83;;;5.10;99.90;;;;;;4169284;28;20034;-75
2023/02/25 06:56:59;;;;;;;11.68;2.47;;;5.10;99.90;;;;;;4170460;28;20045;-75
2023/02/25 06:59:00;;;;;;;21.45;4.03;;;5.10;99.90;;;;;;4175994;28;20132;-76
2023/02/25 07:01:08;;;;;;;8.02;2.53;;;5.20;99.90;;;;;;4170863;28;20033;-77
2023/02/25 07:03:11;;;;;;;15.57;3.50;;;5.10;99.90;;;;;;4169912;28;20041;-76
2023/02/25 07:05:12;;;;;;;15.70;3.13;;;5.10;99.90;;;;;;4169925;28;20083;-75
2023/02/25 07:07:12;;;;;;;17.65;2.78;;;5.10;99.90;;;;;;4173823;28;20040;-75
2023/02/25 07:09:13;;;;;;;11.60;3.17;;;5.10;99.90;;;;;;4173899;28;20037;-75
2023/02/25 07:11:27;;;;;;;12.70;2.95;;;5.20;99.90;;;;;;4171083;28;20472;-74
2023/02/25 07:13:28;;;;;;;24.88;3.83;;;5.20;99.90;;;;;;4173290;28;20089;-73
2023/02/25 07:15:29;;;;;;;13.45;3.08;;;5.30;99.90;;;;;;4172114;28;20524;-74
2023/02/25 07:17:29;;;;;;;20.05;3.42;;;5.30;99.90;;;;;;4172887;28;20049;-74
2023/02/25 07:19:30;;;;;;;21.67;3.50;;;5.30;99.90;;;;;;4173937;28;20043;-74
2023/02/25 07:21:30;;;;;;;12.40;3.65;;;5.30;99.90;;;;;;4170838;28;20072;-73
2023/02/25 07:23:31;;;;;;;21.35;3.65;;;5.30;99.90;;;;;;4172118;28;20034;-74
2023/02/25 07:25:32;;;;;;;20.60;3.90;;;5.30;99.90;;;;;;4170667;28;20057;-74
2023/02/25 07:27:32;;;;;;;15.65;2.95;;;5.40;99.90;;;;;;4170454;28;20029;-75
2023/02/25 07:29:33;;;;;;;14.20;2.80;;;5.40;99.90;;;;;;4172558;28;20037;-74
2023/02/25 07:31:33;;;;;;;13.70;3.03;;;5.40;99.90;;;;;;4171895;28;20484;-75
2023/02/25 07:33:34;;;;;;;27.60;3.40;;;5.40;99.90;;;;;;4176075;28;20060;-74
2023/02/25 07:35:34;;;;;;;22.50;3.83;;;5.50;99.90;;;;;;4171480;28;20102;-74
2023/02/25 07:37:36;;;;;;;15.05;3.67;;;5.40;99.90;;;;;;4174302;28;20034;-75
2023/02/25 07:39:37;;;;;;;27.42;4.60;;;5.40;99.90;;;;;;4168037;28;20037;-73
2023/02/25 07:41:38;;;;;;;20.05;4.00;;;5.40;99.90;;;;;;4172250;28;20495;-73
2023/02/25 07:43:39;;;;;;;25.77;3.63;;;5.40;99.90;;;;;;4180348;28;20454;-74
2023/02/25 07:45:40;;;;;;;21.38;3.75;;;5.40;99.90;;;;;;4186036;28;20029;-74
2023/02/25 07:47:40;;;;;;;17.38;3.67;;;5.40;99.90;;;;;;4173281;28;20052;-74
2023/02/25 07:49:41;;;;;;;21.20;3.25;;;5.40;99.90;;;;;;4175514;28;20045;-74
2023/02/25 07:51:41;;;;;;;21.13;3.70;;;5.40;99.90;;;;;;4180730;28;20041;-76
2023/02/25 07:53:42;;;;;;;12.50;3.28;;;5.50;99.90;;;;;;4173214;28;20072;-74
2023/02/25 07:55:43;;;;;;;18.25;4.25;;;5.50;99.90;;;;;;4175561;28;20116;-74
2023/02/25 07:57:44;;;;;;;16.23;3.50;;;5.50;99.90;;;;;;4178370;28;20053;-75
2023/02/25 07:59:45;;;;;;;15.68;2.95;;;5.60;99.90;;;;;;4181167;28;20368;-75
2023/02/25 08:01:45;;;;;;;12.55;3.25;;;5.60;99.90;;;;;;4178069;28;20042;-75
2023/02/25 08:03:49;;;;;;;18.45;3.55;;;5.70;99.90;;;;;;4177180;28;20938;-75
2023/02/25 08:05:51;;;;;;;19.55;3.85;;;5.70;99.90;;;;;;4179122;28;20056;-75
2023/02/25 08:07:52;;;;;;;18.08;3.92;;;5.70;99.90;;;;;;4177302;28;20461;-75
2023/02/25 08:09:53;;;;;;;17.83;3.35;;;5.70;99.90;;;;;;4176003;28;20040;-75
2023/02/25 08:11:53;;;;;;;12.15;2.35;;;5.70;99.90;;;;;;4177746;28;20041;-75
2023/02/25 08:13:54;;;;;;;18.30;3.53;;;5.70;99.90;;;;;;4173866;28;20171;-74
2023/02/25 08:15:55;;;;;;;15.35;3.13;;;5.70;99.90;;;;;;4174667;28;20025;-75
2023/02/25 08:17:55;;;;;;;17.85;3.50;;;5.80;99.90;;;;;;4181010;28;20044;-75
2023/02/25 08:19:56;;;;;;;15.07;3.33;;;5.80;99.90;;;;;;4178093;28;20479;-74
2023/02/25 08:21:56;;;;;;;13.15;3.05;;;5.80;99.90;;;;;;4179578;28;20483;-75
2023/02/25 08:23:58;;;;;;;20.95;3.75;;;5.80;99.90;;;;;;4183256;28;20033;-75
2023/02/25 08:25:59;;;;;;;21.92;3.83;;;5.80;99.90;;;;;;4178320;28;20068;-75
2023/02/25 08:28:00;;;;;;;12.43;3.05;;;5.80;99.90;;;;;;4170280;28;20450;-73
2023/02/25 08:30:02;;;;;;;20.85;4.03;;;5.80;99.90;;;;;;4173969;28;20048;-74
2023/02/25 08:32:05;;;;;;;11.47;3.00;;;5.80;99.90;;;;;;4178256;28;20057;-74
2023/02/25 08:34:06;;;;;;;19.35;3.30;;;5.90;99.90;;;;;;4174503;28;20593;-74
2023/02/25 08:36:08;;;;;;;21.73;3.72;;;5.90;99.90;;;;;;4176369;28;20037;-75
2023/02/25 08:38:09;;;;;;;15.82;2.83;;;5.90;99.90;;;;;;4174376;28;20033;-74
2023/02/25 08:40:10;;;;;;;17.08;3.30;;;5.90;99.90;;;;;;4174439;28;20199;-74
2023/02/25 08:42:10;;;;;;;23.23;3.58;;;5.90;99.90;;;;;;4175155;28;20628;-74
2023/02/25 08:44:11;;;;;;;13.77;2.95;;;5.90;99.90;;;;;;4178543;28;20045;-74
2023/02/25 08:46:12;;;;;;;15.95;3.42;;;6.00;99.90;;;;;;4179025;28;20033;-74
2023/02/25 08:48:12;;;;;;;15.32;2.72;;;6.00;99.90;;;;;;4175490;28;20037;-74
2023/02/25 08:50:13;;;;;;;23.75;3.42;;;6.00;99.90;;;;;;4174228;28;20040;-74
2023/02/25 08:52:13;;;;;;;18.33;3.33;;;6.00;99.90;;;;;;4177029;28;20038;-74
2023/02/25 08:54:14;;;;;;;16.38;2.97;;;6.00;99.90;;;;;;4179362;28;20498;-74
2023/02/25 08:56:16;;;;;;;24.35;3.78;;;6.00;99.90;;;;;;4177224;28;20037;-74
2023/02/25 08:58:16;;;;;;;19.10;3.97;;;6.10;99.90;;;;;;4171670;28;20105;-74
2023/02/25 09:00:17;;;;;;;24.08;3.85;;;6.10;99.90;;;;;;4172800;28;20443;-74
2023/02/25 09:02:18;;;;;;;13.20;2.85;;;6.20;99.90;;;;;;4172312;28;20033;-75
2023/02/25 09:04:21;;;;;;;16.42;2.85;;;6.30;99.90;;;;;;4173117;28;20121;-74
2023/02/25 09:06:24;;;;;;;15.50;2.83;;;6.30;99.90;;;;;;4170402;28;20033;-74
2023/02/25 09:08:24;;;;;;;19.38;3.75;;;6.30;99.90;;;;;;4171299;28;20116;-74
2023/02/25 09:10:25;;;;;;;11.30;2.67;;;6.40;99.90;;;;;;4171788;28;20033;-74
2023/02/25 09:12:26;;;;;;;18.05;3.38;;;6.50;99.90;;;;;;4174550;28;20049;-74
2023/02/25 09:14:26;;;;;;;24.10;3.85;;;6.50;99.90;;;;;;4174492;28;20033;-74
2023/02/25 09:16:28;;;;;;;18.77;2.70;;;6.50;99.90;;;;;;4175729;28;20383;-75
2023/02/25 09:18:29;;;;;;;16.17;3.30;;;6.50;99.90;;;;;;4170039;28;20029;-71
2023/02/25 09:20:30;;;;;;;12.27;2.67;;;6.60;99.90;;;;;;4170732;28;20498;-73
2023/02/25 09:22:31;;;;;;;13.50;2.40;;;6.60;99.90;;;;;;4170072;28;20037;-74
2023/02/25 09:24:32;;;;;;;14.23;2.88;;;6.60;99.90;;;;;;4175442;28;20052;-74
2023/02/25 09:26:33;;;;;;;12.02;2.25;;;6.60;99.90;;;;;;4179893;28;20056;-74
2023/02/25 09:28:34;;;;;;;11.35;2.42;;;6.70;99.90;;;;;;4176031;28;20477;-74
2023/02/25 09:30:34;;;;;;;8.63;1.95;;;6.60;99.90;;;;;;4173181;28;20068;-74
2023/02/25 09:32:35;;;;;;;12.05;2.38;;;6.60;99.90;;;;;;4172241;28;20037;-74
2023/02/25 09:34:36;;;;;;;18.50;2.55;;;6.60;99.90;;;;;;4172143;28;20032;-74
2023/02/25 09:36:37;;;;;;;8.43;2.08;;;6.50;99.90;;;;;;4171937;28;20041;-75
2023/02/25 09:38:38;;;;;;;6.38;1.80;;;6.50;99.90;;;;;;4173412;28;20060;-74
2023/02/25 09:40:44;;;;;;;8.07;1.93;;;6.50;99.90;;;;;;4173354;28;20090;-73
2023/02/25 09:43:07;;;;;;;6.70;1.70;;;6.50;99.90;;;;;;4174385;28;20658;-74
2023/02/25 09:45:16;;;;;;;6.95;1.95;;;6.50;99.90;;;;;;4173431;28;20373;-72
2023/02/25 09:47:28;;;;;;;9.23;1.65;;;6.50;99.90;;;;;;4179837;28;20041;-74
2023/02/25 09:50:05;;;;;;;3.72;1.40;;;6.50;99.90;;;;;;4177110;28;20040;-74
2023/02/25 09:52:17;;;;;;;9.40;2.05;;;6.50;99.90;;;;;;4140037;28;20100;-74
2023/02/25 09:54:24;;;;;;;8.35;2.00;;;6.50;99.90;;;;;;4174962;28;20037;-74
2023/02/25 09:56:27;;;;;;;8.27;1.83;;;6.50;99.90;;;;;;4169603;28;20045;-74
2023/02/25 09:58:30;;;;;;;7.18;2.00;;;6.50;99.90;;;;;;4175824;28;20475;-74
2023/02/25 10:00:36;;;;;;;6.15;1.67;;;6.50;99.90;;;;;;4175419;28;20048;-74
2023/02/25 10:03:07;;;;;;;7.45;1.50;;;6.50;99.90;;;;;;4177077;28;20055;-74
2023/02/25 10:05:20;;;;;;;9.10;1.40;;;6.50;99.90;;;;;;4175157;28;20056;-74
2023/02/25 10:07:26;;;;;;;7.40;1.92;;;6.50;99.90;;;;;;4169831;28;20039;-74
2023/02/25 10:09:52;;;;;;;7.28;1.70;;;6.60;99.90;;;;;;4175824;28;20107;-74
2023/02/25 10:12:19;;;;;;;6.75;1.77;;;6.60;99.90;;;;;;4172050;28;20033;-74
2023/02/25 10:14:40;;;;;;;7.30;2.13;;;6.60;99.90;;;;;;4173604;28;20041;-74
2023/02/25 10:17:15;;;;;;;7.78;2.30;;;6.60;99.90;;;;;;4170459;28;20041;-74
2023/02/25 10:19:42;;;;;;;8.82;1.80;;;6.70;99.90;;;;;;4170750;28;20120;-74
2023/02/25 10:22:13;;;;;;;12.90;2.20;;;6.70;99.90;;;;;;4168681;28;20032;-74
2023/02/25 10:24:42;;;;;;;14.07;2.25;;;6.70;99.90;;;;;;4183910;28;20037;-74
2023/02/25 10:26:48;;;;;;;8.48;1.50;;;6.70;99.90;;;;;;4175091;28;20459;-74
2023/02/25 10:28:53;;;;;;;6.82;1.88;;;6.80;99.90;;;;;;4174200;28;20068;-74
2023/02/25 10:31:03;;;;;;;8.75;1.90;;;6.80;99.90;;;;;;4185335;28;20037;-74
2023/02/25 10:33:12;;;;;;;12.50;1.63;;;6.90;99.90;;;;;;4180394;28;20033;-74
2023/02/25 10:35:24;;;;;;;5.20;1.50;;;6.90;99.90;;;;;;4179550;28;20048;-74
2023/02/25 10:37:32;;;;;;;9.98;1.83;;;7.00;99.90;;;;;;4185212;28;20040;-74
2023/02/25 10:39:33;;;;;;;2.67;1.35;;;7.10;99.90;;;;;;4187153;28;20039;-74
2023/02/25 10:41:34;;;;;;;4.18;1.27;;;7.10;99.90;;;;;;4184343;28;20090;-74
2023/02/25 10:43:35;;;;;;;8.50;2.05;;;7.20;99.90;;;;;;4176911;28;20041;-74
2023/02/25 10:45:39;;;;;;;4.93;1.73;;;7.20;99.90;;;;;;4179357;28;20059;-74